createdAt,value
2019-05-02T00:02:28.577Z,49.27
2019-05-02T00:04:55.807Z,47.73
2019-05-02T00:07:25.376Z,47.37
2019-05-02T00:09:54.576Z,42.13
2019-05-02T00:12:23.971Z,47.80
2019-05-02T00:14:56.590Z,43.47
2019-05-02T00:17:25.558Z,44.23
2019-05-02T00:19:54.733Z,44.10
2019-05-02T00:22:23.721Z,45.03
2019-05-02T00:24:52.526Z,44.60
2019-05-02T00:27:21.350Z,47.00
2019-05-02T00:29:53.902Z,45.90
2019-05-02T00:32:22.455Z,46.67
2019-05-02T00:34:51.565Z,50.30
2019-05-02T00:37:24.597Z,49.20
2019-05-02T00:39:50.956Z,49.17
2019-05-02T00:42:22.409Z,51.03
2019-05-02T00:44:50.184Z,49.90
2019-05-02T00:47:26.463Z,50.60
2019-05-02T00:49:55.244Z,50.33
2019-05-02T00:52:23.979Z,51.00
2019-05-02T00:54:54.990Z,46.67
2019-05-02T00:57:23.213Z,51.97
2019-05-02T00:59:52.030Z,52.63
2019-05-02T01:02:30.883Z,50.77
2019-05-02T01:05:03.222Z,50.20
2019-05-02T01:07:30.121Z,54.53
2019-05-02T01:09:58.864Z,53.23
2019-05-02T01:12:27.688Z,61.00
2019-05-02T01:14:56.748Z,58.17
2019-05-02T01:17:26.094Z,62.03
2019-05-02T01:19:56.011Z,64.87
2019-05-02T01:22:24.801Z,61.13
2019-05-02T01:24:53.734Z,63.50
2019-05-02T01:27:41.268Z,57.30
2019-05-02T01:30:21.294Z,56.50
2019-05-02T01:33:15.004Z,56.67
2019-05-02T01:35:55.122Z,55.57
2019-05-02T01:38:31.884Z,58.87
2019-05-02T01:40:58.569Z,74.07
2019-05-02T01:43:29.293Z,75.70
2019-05-02T01:45:58.192Z,66.33
2019-05-02T01:48:27.721Z,70.63
2019-05-02T01:50:56.977Z,61.50
2019-05-02T01:53:29.142Z,65.27
2019-05-02T01:55:57.286Z,66.87
2019-05-02T01:58:26.957Z,65.43
2019-05-02T02:00:55.765Z,64.97
2019-05-02T02:03:24.711Z,70.47
2019-05-02T02:05:53.547Z,65.40
2019-05-02T02:08:22.596Z,74.73
2019-05-02T02:10:56.071Z,77.27
2019-05-02T02:13:22.091Z,76.90
2019-05-02T02:15:50.917Z,75.50
2019-05-02T02:18:22.187Z,76.13
2019-05-02T02:21:01.778Z,79.17
2019-05-02T02:23:38.686Z,84.47
2019-05-02T02:26:12.031Z,80.63
2019-05-02T02:28:41.183Z,80.60
2019-05-02T02:31:10.260Z,77.30
2019-05-02T02:33:40.860Z,77.50
2019-05-02T02:36:10.155Z,73.40
2019-05-02T02:38:39.422Z,79.20
2019-05-02T02:41:13.104Z,77.83
2019-05-02T02:43:39.343Z,74.23
2019-05-02T02:46:16.883Z,73.07
2019-05-02T02:48:46.014Z,80.63
2019-05-02T02:51:24.099Z,76.30
2019-05-02T02:53:45.910Z,72.83
2019-05-02T02:56:15.079Z,74.30
2019-05-02T02:58:46.026Z,73.23
2019-05-02T03:01:27.612Z,72.03
2019-05-02T03:03:46.087Z,69.10
2019-05-02T03:06:15.317Z,67.57
2019-05-02T03:08:48.801Z,70.67
2019-05-02T03:11:23.257Z,65.83
2019-05-02T03:14:05.575Z,69.63
2019-05-02T03:16:27.050Z,73.23
2019-05-02T03:18:56.494Z,67.30
2019-05-02T03:21:25.729Z,66.43
2019-05-02T03:24:03.410Z,67.00
2019-05-02T03:26:26.487Z,67.53
2019-05-02T03:28:58.464Z,68.80
2019-05-02T03:31:30.282Z,63.27
2019-05-02T03:34:00.865Z,68.03
2019-05-02T03:36:35.799Z,65.50
2019-05-02T03:39:00.144Z,65.07
2019-05-02T03:41:28.973Z,65.77
2019-05-02T03:44:10.853Z,66.33
2019-05-02T03:46:29.245Z,63.27
2019-05-02T03:49:05.431Z,70.13
2019-05-02T03:51:28.981Z,65.57
2019-05-02T03:54:06.293Z,70.00
2019-05-02T03:56:28.420Z,68.47
2019-05-02T03:58:58.202Z,67.23
2019-05-02T04:01:27.495Z,68.30
2019-05-02T04:03:56.324Z,67.97
2019-05-02T04:06:25.329Z,67.57
2019-05-02T04:09:00.129Z,70.50
2019-05-02T04:11:25.885Z,77.47
2019-05-02T04:13:57.953Z,75.93
2019-05-02T04:16:28.627Z,77.13
2019-05-02T04:18:58.737Z,71.30
2019-05-02T04:21:27.610Z,79.37
2019-05-02T04:24:06.709Z,79.30
2019-05-02T04:26:28.175Z,78.50
2019-05-02T04:28:57.683Z,78.57
2019-05-02T04:31:31.400Z,82.33
2019-05-02T04:33:57.256Z,86.83
2019-05-02T04:36:26.029Z,77.57
2019-05-02T04:38:54.789Z,74.57
2019-05-02T04:41:28.432Z,76.80
2019-05-02T04:43:57.693Z,74.43
2019-05-02T04:46:30.110Z,75.90
2019-05-02T04:48:55.090Z,75.93
2019-05-02T04:51:27.449Z,74.17
2019-05-02T04:53:54.654Z,78.53
2019-05-02T04:56:23.421Z,74.40
2019-05-02T04:58:52.248Z,75.07
2019-05-02T05:01:21.587Z,78.27
2019-05-02T05:03:58.189Z,74.50
2019-05-02T05:06:20.908Z,71.47
2019-05-02T05:08:49.654Z,70.53
2019-05-02T05:11:24.672Z,75.67
2019-05-02T05:13:52.532Z,77.87
2019-05-02T05:16:20.091Z,78.87
2019-05-02T05:18:53.030Z,82.13
2019-05-02T05:21:19.459Z,71.33
2019-05-02T05:24:07.778Z,74.90
2019-05-02T05:26:42.756Z,73.57
2019-05-02T05:29:08.796Z,72.03
2019-05-02T05:31:38.287Z,70.10
2019-05-02T05:34:07.784Z,70.30
2019-05-02T05:36:37.636Z,69.13
2019-05-02T05:39:08.625Z,64.80
2019-05-02T05:41:37.929Z,70.47
2019-05-02T05:44:07.747Z,66.43
2019-05-02T05:46:38.758Z,66.97
2019-05-02T05:49:10.463Z,62.33
2019-05-02T05:51:37.645Z,83.63
2019-05-02T05:54:07.780Z,63.63
2019-05-02T05:56:42.980Z,60.00
2019-05-02T05:59:07.977Z,55.03
2019-05-02T06:01:38.402Z,55.00
2019-05-02T06:04:08.000Z,53.43
2019-05-02T06:06:37.749Z,60.27
2019-05-02T06:09:08.965Z,56.23
2019-05-02T06:11:37.840Z,55.10
2019-05-02T06:14:06.749Z,55.07
2019-05-02T06:16:35.564Z,58.40
2019-05-02T06:19:04.618Z,62.27
2019-05-02T06:21:33.474Z,61.40
2019-05-02T06:24:02.302Z,56.83
2019-05-02T06:26:31.056Z,57.90
2019-05-02T06:28:59.815Z,50.13
2019-05-02T06:31:28.550Z,49.63
2019-05-02T06:33:57.305Z,46.00
2019-05-02T06:36:26.423Z,47.63
2019-05-02T06:38:56.754Z,48.77
2019-05-02T06:41:25.724Z,52.87
2019-05-02T06:43:54.505Z,47.00
2019-05-02T06:46:27.598Z,48.27
2019-05-02T06:48:53.796Z,48.80
2019-05-02T06:51:32.553Z,48.43
2019-05-02T06:54:18.042Z,48.70
2019-05-02T06:56:53.437Z,50.47
2019-05-02T06:59:26.678Z,46.63
2019-05-02T07:01:58.883Z,43.23
2019-05-02T07:04:38.951Z,45.23
2019-05-02T07:07:13.334Z,47.17
2019-05-02T07:09:48.434Z,45.10
2019-05-02T07:12:20.756Z,45.67
2019-05-02T07:14:55.985Z,43.43
2019-05-02T07:17:44.359Z,46.87
2019-05-02T07:20:35.189Z,46.47
2019-05-02T07:23:10.707Z,41.60
2019-05-02T07:25:46.177Z,47.57
2019-05-02T07:28:24.870Z,44.80
2019-05-02T07:31:06.558Z,44.83
2019-05-02T07:33:39.206Z,42.50
2019-05-02T07:36:15.343Z,45.57
2019-05-02T07:38:48.771Z,42.03
2019-05-02T07:41:17.487Z,44.50
2019-05-02T07:43:46.233Z,43.07
2019-05-02T07:46:16.152Z,45.10
2019-05-02T07:48:48.983Z,73.87
2019-05-02T07:51:17.329Z,47.27
2019-05-02T07:53:48.579Z,43.83
2019-05-02T07:56:18.714Z,44.80
2019-05-02T07:58:48.173Z,46.90
2019-05-02T08:01:17.003Z,42.77
2019-05-02T08:03:45.735Z,46.93
2019-05-02T08:06:14.483Z,47.50
2019-05-02T08:08:43.287Z,46.73
2019-05-02T08:11:12.229Z,48.17
2019-05-02T08:13:41.106Z,47.80
2019-05-02T08:16:10.007Z,47.50
2019-05-02T08:18:38.870Z,40.57
2019-05-02T08:21:07.948Z,43.93
2019-05-02T08:23:36.674Z,45.60
2019-05-02T08:26:05.714Z,46.87
2019-05-02T08:29:02.536Z,46.30
2019-05-02T08:31:31.356Z,43.43
2019-05-02T08:34:00.220Z,44.93
2019-05-02T08:36:28.977Z,46.30
2019-05-02T08:38:57.755Z,46.97
2019-05-02T08:41:26.506Z,43.20
2019-05-02T08:43:55.351Z,48.23
2019-05-02T08:46:24.108Z,45.50
2019-05-02T08:48:52.854Z,48.53
2019-05-02T08:51:21.587Z,49.00
2019-05-02T08:53:52.004Z,44.47
2019-05-02T08:56:21.296Z,44.10
2019-05-02T08:58:51.198Z,45.40
2019-05-02T09:01:20.075Z,41.17
2019-05-02T09:03:55.023Z,41.97
2019-05-02T09:06:22.648Z,40.10
2019-05-02T09:08:51.376Z,41.17
2019-05-02T09:11:20.276Z,43.83
2019-05-02T09:13:49.210Z,43.77
2019-05-02T09:16:23.732Z,41.97
2019-05-02T09:18:53.360Z,43.53
2019-05-02T09:21:19.014Z,41.20
2019-05-02T09:23:47.761Z,43.93
2019-05-02T09:26:16.649Z,42.70
2019-05-02T09:28:45.479Z,41.37
2019-05-02T09:31:16.109Z,39.93
2019-05-02T09:33:46.830Z,41.17
2019-05-02T09:36:15.387Z,40.50
2019-05-02T09:38:44.177Z,39.90
2019-05-02T09:41:18.849Z,44.53
2019-05-02T09:43:43.450Z,41.63
2019-05-02T09:46:16.515Z,39.33
2019-05-02T09:48:43.829Z,41.27
2019-05-02T09:51:17.314Z,40.03
2019-05-02T09:53:43.331Z,37.70
2019-05-02T09:56:12.813Z,39.13
2019-05-02T09:58:42.148Z,36.70
2019-05-02T10:01:34.269Z,38.10
2019-05-02T10:04:03.091Z,36.93
2019-05-02T10:06:33.954Z,36.03
2019-05-02T10:09:02.895Z,35.73
2019-05-02T10:11:32.331Z,37.47
2019-05-02T10:14:02.448Z,42.93
2019-05-02T10:16:31.918Z,41.17
2019-05-02T10:19:09.628Z,50.40
2019-05-02T10:21:31.834Z,38.37
2019-05-02T10:24:01.687Z,38.27
2019-05-02T10:26:32.945Z,44.00
2019-05-02T10:29:02.029Z,36.97
2019-05-02T10:31:33.484Z,36.67
2019-05-02T10:34:02.383Z,35.67
2019-05-02T10:36:32.530Z,38.00
2019-05-02T10:39:01.790Z,37.07
2019-05-02T10:41:38.821Z,43.07
2019-05-02T10:44:02.188Z,39.03
2019-05-02T10:46:37.851Z,36.97
2019-05-02T10:49:18.719Z,43.13
2019-05-02T10:51:51.239Z,39.80
2019-05-02T10:54:20.586Z,40.57
2019-05-02T10:56:48.652Z,42.37
2019-05-02T10:59:17.371Z,40.10
2019-05-02T11:02:05.381Z,41.93
2019-05-02T11:04:36.466Z,41.10
2019-05-02T11:07:05.498Z,40.90
2019-05-02T11:09:34.235Z,36.80
2019-05-02T11:12:04.844Z,41.90
2019-05-02T11:14:39.881Z,39.60
2019-05-02T11:17:17.657Z,43.00
2019-05-02T11:19:52.336Z,41.57
2019-05-02T11:22:22.771Z,39.87
2019-05-02T11:24:52.338Z,39.40
2019-05-02T11:27:22.088Z,37.37
2019-05-02T11:29:52.585Z,38.77
2019-05-02T11:32:22.115Z,40.23
2019-05-02T11:34:52.417Z,38.50
2019-05-02T11:37:22.645Z,43.90
2019-05-02T11:39:58.506Z,37.43
2019-05-02T11:42:27.121Z,38.17
2019-05-02T11:44:53.209Z,41.23
2019-05-02T11:47:26.494Z,41.27
2019-05-02T11:49:55.916Z,43.50
2019-05-02T11:52:27.482Z,42.03
2019-05-02T11:54:53.891Z,41.03
2019-05-02T11:57:28.520Z,40.93
2019-05-02T11:59:53.663Z,42.77
2019-05-02T12:02:38.223Z,43.93
2019-05-02T12:05:08.805Z,59.53
2019-05-02T12:07:37.604Z,59.17
2019-05-02T12:10:06.707Z,48.37
2019-05-02T12:12:36.408Z,39.33
2019-05-02T12:15:06.028Z,66.27
2019-05-02T12:17:34.804Z,54.63
2019-05-02T12:20:03.852Z,52.57
2019-05-02T12:22:32.791Z,49.47
2019-05-02T12:25:02.974Z,47.43
2019-05-02T12:27:31.950Z,55.80
2019-05-02T12:30:03.122Z,42.90
2019-05-02T12:32:33.448Z,42.73
2019-05-02T12:35:02.499Z,56.07
2019-05-02T12:37:32.696Z,40.90
2019-05-02T12:40:02.664Z,44.50
2019-05-02T12:42:33.067Z,53.83
2019-05-02T12:45:03.027Z,42.70
2019-05-02T12:47:32.030Z,39.73
2019-05-02T12:50:02.977Z,43.50
2019-05-02T12:52:32.094Z,70.63
2019-05-02T12:55:02.268Z,87.03
2019-05-02T12:57:32.141Z,43.93
2019-05-02T13:00:02.163Z,43.43
2019-05-02T13:02:41.713Z,44.50
2019-05-02T13:05:10.591Z,39.63
2019-05-02T13:07:42.797Z,46.80
2019-05-02T13:10:12.914Z,44.20
2019-05-02T13:12:42.585Z,42.47
2019-05-02T13:15:12.823Z,42.13
2019-05-02T13:17:48.441Z,43.83
2019-05-02T13:20:15.433Z,43.30
2019-05-02T13:23:03.309Z,44.87
2019-05-02T13:25:36.945Z,44.93
2019-05-02T13:28:03.515Z,43.70
2019-05-02T13:30:46.486Z,42.93
2019-05-02T13:33:20.029Z,42.20
2019-05-02T13:35:51.986Z,39.67
2019-05-02T13:38:22.478Z,41.40
2019-05-02T13:40:51.856Z,44.13
2019-05-02T13:43:22.183Z,43.43
2019-05-02T13:46:12.471Z,41.80
2019-05-02T13:48:42.855Z,43.27
2019-05-02T13:51:11.929Z,45.40
2019-05-02T13:53:55.247Z,43.47
2019-05-02T13:56:45.763Z,43.40
2019-05-02T13:59:14.996Z,44.63
2019-05-02T14:01:44.609Z,40.50
2019-05-02T14:04:14.937Z,45.70
2019-05-02T14:06:43.954Z,40.23
2019-05-02T14:09:22.921Z,42.30
2019-05-02T14:12:01.980Z,46.73
2019-05-02T14:14:32.593Z,43.20
2019-05-02T14:17:03.009Z,40.70
2019-05-02T14:19:32.194Z,33.63
2019-05-02T14:22:02.804Z,38.63
2019-05-02T14:24:32.230Z,42.70
2019-05-02T14:27:02.599Z,36.07
2019-05-02T14:29:33.003Z,37.50
2019-05-02T14:32:02.673Z,42.83
2019-05-02T14:34:42.632Z,37.13
2019-05-02T14:37:11.874Z,38.93
2019-05-02T14:39:41.672Z,41.97
2019-05-02T14:42:15.358Z,42.17
2019-05-02T14:45:04.285Z,43.00
2019-05-02T14:47:17.874Z,41.77
2019-05-02T14:49:42.906Z,54.37
2019-05-02T14:52:12.655Z,47.77
2019-05-02T14:54:43.846Z,42.70
2019-05-02T14:57:20.181Z,40.67
2019-05-02T14:59:50.286Z,53.20
2019-05-02T15:02:39.355Z,50.27
2019-05-02T15:05:06.505Z,43.27
2019-05-02T15:07:38.246Z,46.67
2019-05-02T15:10:06.714Z,45.80
2019-05-02T15:12:35.483Z,43.57
2019-05-02T15:15:04.757Z,40.43
2019-05-02T15:17:37.728Z,35.60
2019-05-02T15:20:04.589Z,43.47
2019-05-02T15:22:37.523Z,43.47
2019-05-02T15:25:07.856Z,47.63
2019-05-02T15:27:41.950Z,54.23
2019-05-02T15:30:07.371Z,52.53
2019-05-02T15:32:46.557Z,37.70
2019-05-02T15:35:29.025Z,37.23
2019-05-02T15:38:02.680Z,34.23
2019-05-02T15:43:02.831Z,47.97
2019-05-02T15:45:27.946Z,45.50
2019-05-02T15:47:56.760Z,31.83
2019-05-02T15:50:26.028Z,39.80
2019-05-02T15:53:09.766Z,57.20
2019-05-02T15:55:39.497Z,26.57
2019-05-02T15:58:04.650Z,24.53
2019-05-02T16:00:37.118Z,27.40
2019-05-02T16:03:05.988Z,23.07
2019-05-02T16:05:36.489Z,22.83
2019-05-02T16:08:08.856Z,21.50
2019-05-02T16:10:38.560Z,27.00
2019-05-02T16:13:08.824Z,22.43
2019-05-02T16:15:38.535Z,23.47
2019-05-02T16:18:07.464Z,25.13
2019-05-02T16:21:08.059Z,20.53
2019-05-02T16:23:36.916Z,23.17
2019-05-02T16:26:14.468Z,19.20
2019-05-02T16:28:45.446Z,21.17
2019-05-02T16:31:17.020Z,21.27
2019-05-02T16:33:49.739Z,22.07
2019-05-02T16:36:16.447Z,22.03
2019-05-02T16:38:45.217Z,22.47
2019-05-02T16:41:14.006Z,19.53
2019-05-02T16:43:42.757Z,21.00
2019-05-02T16:46:14.111Z,20.77
2019-05-02T16:48:42.625Z,22.23
2019-05-02T16:51:27.589Z,19.73
2019-05-02T16:53:42.719Z,18.17
2019-05-02T16:56:11.642Z,19.50
2019-05-02T16:58:43.395Z,20.57
2019-05-02T17:01:12.291Z,18.83
2019-05-02T17:03:42.377Z,18.50
2019-05-02T17:06:12.362Z,21.03
2019-05-02T17:08:57.407Z,20.77
2019-05-02T17:11:32.348Z,17.50
2019-05-02T17:13:59.267Z,17.80
2019-05-02T17:16:28.083Z,20.73
2019-05-02T17:18:56.808Z,20.47
2019-05-02T17:21:26.838Z,17.23
2019-05-02T17:23:56.079Z,17.23
2019-05-02T17:26:24.847Z,17.97
2019-05-02T17:28:53.637Z,17.20
2019-05-02T17:31:23.108Z,19.10
2019-05-02T17:33:52.961Z,19.50
2019-05-02T17:36:28.411Z,17.00
2019-05-02T17:38:54.541Z,22.47
2019-05-02T17:41:23.509Z,17.27
2019-05-02T17:43:52.273Z,19.03
2019-05-02T17:46:25.718Z,18.93
2019-05-02T17:48:52.762Z,18.50
2019-05-02T17:51:37.796Z,17.97
2019-05-02T17:54:07.841Z,20.03
2019-05-02T17:56:36.879Z,21.07
2019-05-02T17:59:05.905Z,20.60
2019-05-02T18:01:38.825Z,21.23
2019-05-02T18:04:12.730Z,24.23
2019-05-02T18:06:38.263Z,31.90
2019-05-02T18:09:08.608Z,35.80
2019-05-02T18:11:37.896Z,35.13
2019-05-02T18:14:16.173Z,41.27
2019-05-02T18:16:39.268Z,41.60
2019-05-02T18:19:07.981Z,43.50
2019-05-02T18:21:36.807Z,39.63
2019-05-02T18:24:06.209Z,39.90
2019-05-02T18:26:35.704Z,40.67
2019-05-02T18:29:06.890Z,38.30
2019-05-02T18:31:39.623Z,40.10
2019-05-02T18:34:06.449Z,38.73
2019-05-02T18:36:35.556Z,39.00
2019-05-02T18:39:06.667Z,41.80
2019-05-02T18:41:37.441Z,45.10
2019-05-02T18:44:06.169Z,40.43
2019-05-02T18:46:36.786Z,41.63
2019-05-02T18:49:06.015Z,52.03
2019-05-02T18:51:35.041Z,49.10
2019-05-02T18:54:07.438Z,47.60
2019-05-02T18:56:42.850Z,45.47
2019-05-02T18:59:06.378Z,43.53
2019-05-02T19:01:35.370Z,54.00
2019-05-02T19:04:04.421Z,76.30
2019-05-02T19:06:36.084Z,59.23
2019-05-02T19:09:07.406Z,58.80
2019-05-02T19:11:36.484Z,58.63
2019-05-02T19:14:05.807Z,52.43
2019-05-02T19:16:34.776Z,56.77
2019-05-02T19:19:03.623Z,54.77
2019-05-02T19:21:36.791Z,51.73
2019-05-02T19:24:03.056Z,48.40
2019-05-02T19:26:32.639Z,50.77
2019-05-02T19:29:22.123Z,52.80
2019-05-02T19:31:52.883Z,50.03
2019-05-02T19:34:26.413Z,47.53
2019-05-02T19:36:53.015Z,46.43
2019-05-02T19:39:24.251Z,44.97
2019-05-02T19:41:52.785Z,45.47
2019-05-02T19:44:29.133Z,40.23
2019-05-02T19:46:52.269Z,33.53
2019-05-02T19:49:22.423Z,29.70
2019-05-02T19:51:56.517Z,28.77
2019-05-02T19:54:23.010Z,27.63
2019-05-02T19:56:52.399Z,24.90
2019-05-02T19:59:25.207Z,25.27
2019-05-02T20:01:52.374Z,17.47
2019-05-02T20:04:22.183Z,20.20
2019-05-02T20:06:52.093Z,15.63
2019-05-02T20:09:20.866Z,15.27
2019-05-02T20:11:51.591Z,20.37
2019-05-02T20:14:21.822Z,18.20
2019-05-02T20:16:54.099Z,16.07
2019-05-02T20:19:26.953Z,14.40
2019-05-02T20:22:22.441Z,29.07
2019-05-02T20:25:00.185Z,18.57
2019-05-02T20:27:28.454Z,19.77
2019-05-02T20:29:58.085Z,14.10
2019-05-02T20:32:26.903Z,15.00
2019-05-02T20:34:56.250Z,17.77
2019-05-02T20:37:25.178Z,16.87
2019-05-02T20:39:54.069Z,18.03
2019-05-02T20:42:22.896Z,16.67
2019-05-02T20:44:52.802Z,19.40
2019-05-02T20:47:25.756Z,25.13
2019-05-02T20:49:54.568Z,25.07
2019-05-02T20:52:23.418Z,30.63
2019-05-02T20:54:52.540Z,33.00
2019-05-02T20:57:21.392Z,29.87
2019-05-02T20:59:52.304Z,30.93
2019-05-02T21:02:21.195Z,36.40
2019-05-02T21:04:52.170Z,34.87
2019-05-02T21:07:33.031Z,35.10
2019-05-02T21:10:21.746Z,32.03
2019-05-02T21:12:52.564Z,33.10
2019-05-02T21:15:21.754Z,33.13
2019-05-02T21:17:50.494Z,32.97
2019-05-02T21:20:19.492Z,36.93
2019-05-02T21:22:48.803Z,35.70
2019-05-02T21:25:17.848Z,36.67
2019-05-02T21:27:46.763Z,36.17
2019-05-02T21:30:17.345Z,39.83
2019-05-02T21:33:59.176Z,37.33
2019-05-02T21:40:57.135Z,41.03
2019-05-02T21:44:45.583Z,37.90
2019-05-02T21:46:48.885Z,38.80
2019-05-02T21:50:22.630Z,40.80
2019-05-02T21:53:27.200Z,41.03
2019-05-02T21:56:46.944Z,40.30
2019-05-02T22:00:27.375Z,39.10
2019-05-02T22:07:37.963Z,39.93
2019-05-02T22:21:53.825Z,54.67
2019-05-02T22:39:12.565Z,41.23
2019-05-02T22:42:13.499Z,45.80
2019-05-02T22:45:23.833Z,43.77
2019-05-02T22:47:43.758Z,44.53
2019-05-02T22:50:14.105Z,45.33
2019-05-02T22:52:43.640Z,43.73
2019-05-02T22:55:14.115Z,43.87
2019-05-02T22:57:43.976Z,40.77
2019-05-02T23:00:16.533Z,41.27
2019-05-02T23:02:45.960Z,36.13
2019-05-02T23:05:15.445Z,39.07
2019-05-02T23:07:45.356Z,41.50
2019-05-02T23:10:15.657Z,40.80
2019-05-02T23:12:46.104Z,42.60
2019-05-02T23:15:17.002Z,38.50
2019-05-02T23:17:48.020Z,38.53
2019-05-02T23:20:17.592Z,37.17
2019-05-02T23:22:47.457Z,41.20
2019-05-02T23:25:42.554Z,41.80
2019-05-02T23:28:18.147Z,37.53
2019-05-02T23:30:47.017Z,38.23
2019-05-02T23:33:16.532Z,37.77
2019-05-02T23:35:48.120Z,38.13
2019-05-02T23:38:17.474Z,38.87
2019-05-02T23:44:03.924Z,35.00
2019-05-02T23:47:44.402Z,23.90
2019-05-02T23:49:58.295Z,17.37
2019-05-02T23:52:27.080Z,14.87
2019-05-02T23:54:55.901Z,12.27
2019-05-02T23:57:26.355Z,11.07
2019-05-02T23:59:58.302Z,10.50
